Flight Track Log - Related Links

Times and Time Zones

All times are in EDT time to prevent confusion due to time zone crossing. See the N137TK flight status page for this flight to view local times or setup timezone preferences in your user account.

Time Position Orientation Groundspeed Altitude Reporting Facility
EDT Latitude Longitude Course Direction KTS MPH feet Rate Location/Type
Sun 07:17:58 AM 26.2469 -81.8156 354° North 166 191 5,200  Level Miami Center
Sun 07:18:58 AM 26.2908 -81.8175 358° North 171 197 7,100 1,950 Climbing Miami Center
Sun 07:19:58 AM 26.3386 -81.8172 360° North 166 191 9,100 1,850 Climbing Miami Center
Sun 07:20:58 AM 26.3911 -81.8147 North 166 191 10,800 1,750 Climbing Miami Center
Sun 07:21:58 AM 26.4408 -81.8214 353° North 173 199 12,600 1,050 Climbing Miami Center
Sun 07:22:00 AM 26.5086 -81.8094 354° North  Level FlightAware Approximate
Sun 07:22:58 AM 26.4992 -81.8286 354° North 186 214 12,900  Level Miami Center
Sun 07:23:00 AM 26.5684 -81.8169 354° North  Level FlightAware Approximate
Sun 07:23:58 AM 26.5678 -81.8361 354° North 222 255 12,900  Level Miami Center
Sun 07:24:58 AM 26.6406 -81.8414 356° North 245 282 12,900  Level Miami Center
Sun 07:25:58 AM 26.7114 -81.8467 356° North 250 288 12,900  Level Miami Center
Sun 07:26:58 AM 26.7800 -81.8544 354° North 250 288 12,900  Level Miami Center
Sun 07:27:58 AM 26.8508 -81.8619 355° North 250 288 12,900  Level Miami Center
Sun 07:28:58 AM 26.9217 -81.8628 359° North 255 293 12,900  Level Miami Center
Sun 07:29:58 AM 26.9972 -81.8497 North 255 293 12,900  Level Miami Center
Sun 07:30:58 AM 27.0708 -81.8389 North 255 293 12,900  Level Miami Center
Sun 07:31:58 AM 27.1419 -81.8303 North 255 293 12,900  Level Miami Center
Sun 07:32:58 AM 27.2175 -81.8217 North 255 293 12,900 50 Level Miami Center
Sun 07:33:58 AM 27.2886 -81.8156 North 255 293 13,000 50 Climbing Miami Center
Sun 07:34:58 AM 27.3597 -81.8069 North 255 293 13,000  Level Miami Center
Sun 07:35:58 AM 27.4331 -81.8008 North 255 293 13,000  Level Miami Center
Sun 07:36:58 AM 27.5044 -81.7919 North 255 293 13,000 -150 Level Miami Center
Sun 07:37:58 AM 27.5797 -81.7836 North 260 299 12,700 -650 Descending Miami Center
Sun 07:38:58 AM 27.6572 -81.7728 North 266 306 11,700 -1,050 Descending Miami Center
Sun 07:39:58 AM 27.7369 -81.7669 North 280 322 10,600 -1,135 Descending Miami Center
Sun 07:42:03 AM 27.9000 -81.7500 North 278 320 8,200 -872 Descending Orlando TRACON
Sun 07:42:57 AM 27.9667 -81.7500 360° North 264 304 8,000 -100 Descending Orlando TRACON
Sun 07:44:03 AM 28.0500 -81.7500 360° North 247 284 8,000  Level Orlando TRACON
Sun 07:44:57 AM 28.1000 -81.7500 360° North 249 287 8,000 -100 Level Orlando TRACON
Sun 07:46:03 AM 28.1500 -81.6667 56° Northeast 275 316 7,800 -591 Descending Orlando TRACON
Sun 07:47:09 AM 28.2333 -81.6333 19° North 274 315 6,700 -1,000 Descending Orlando TRACON
Sun 07:48:03 AM 28.3000 -81.6167 12° North 270 311 5,800 -1,050 Descending Orlando TRACON
Sun 07:49:09 AM 28.3667 -81.5667 33° Northeast 264 304 4,600 -1,050 Descending Orlando TRACON
Sun 07:50:03 AM 28.4167 -81.5333 30° Northeast 264 304 3,700 -1,000 Descending Orlando TRACON
Sun 07:50:51 AM 28.4667 -81.5000 30° Northeast 214 246 2,900 -947 Descending Orlando TRACON
Sun 07:51:57 AM 28.5167 -81.4667 30° Northeast 214 246 1,900 -682 Descending Orlando TRACON
Sun 07:53:03 AM 28.5500 -81.4000 60° Northeast 186 214 1,400 -216 Descending Orlando TRACON
Sun 07:54:16 AM 28.5667 -81.3333 74° East 166 191 1,400 -90 Level Orlando TRACON
Sun 07:55:16 AM 28.5667 -81.3000 90° East 151 174 1,200 -200 Descending Orlando TRACON

Login

Don't have an account? Register now (free) for customized features, flight alerts, and more!